Time;durP1;ratioP1;P1;durP2;ratioP2;P2;SDS_P1;SDS_P2;PMS_P1;PMS_P2;Temp;Humidity;BMP_temperature;BMP_pressure;BME280_temperature;BME280_humidity;BME280_pressure;Samples;Min_cycle;Max_cycle;Signal;HPM_P1;HPM_P2
2021/04/15 00:00:34;;;;;;;5.12;4.30;;;0.10;99.90;;;;;;472454;251;27575;-69
2021/04/15 00:02:35;;;;;;;5.18;4.68;;;0.00;99.90;;;;;;473247;251;27546;-69
2021/04/15 00:04:37;;;;;;;9.00;4.95;;;0.00;99.90;;;;;;473391;251;27501;-68
2021/04/15 00:06:41;;;;;;;5.28;4.78;;;0.00;99.90;;;;;;468203;249;28003;-68
2021/04/15 00:08:42;;;;;;;5.62;4.65;;;-0.10;99.90;;;;;;464249;255;28030;-69
2021/04/15 00:10:43;;;;;;;5.70;4.93;;;0.00;99.90;;;;;;464283;255;27596;-70
2021/04/15 00:12:44;;;;;;;5.60;4.32;;;0.00;99.90;;;;;;464419;255;27465;-69
2021/04/15 00:14:46;;;;;;;4.53;4.10;;;-0.20;99.90;;;;;;464429;255;27468;-69
2021/04/15 00:16:47;;;;;;;6.60;5.35;;;-0.20;99.90;;;;;;465998;248;27639;-69
2021/04/15 00:18:48;;;;;;;5.50;4.82;;;-0.30;99.90;;;;;;467568;253;27570;-69
2021/04/15 00:20:49;;;;;;;5.87;5.12;;;-0.40;99.90;;;;;;467500;253;27704;-69
2021/04/15 00:22:51;;;;;;;5.37;4.50;;;-0.40;99.90;;;;;;467583;253;27583;-69
2021/04/15 00:24:52;;;;;;;5.57;4.43;;;-0.50;99.90;;;;;;467577;253;27601;-69
2021/04/15 00:26:53;;;;;;;5.72;5.22;;;-0.50;99.90;;;;;;467568;253;27995;-68
2021/04/15 00:28:54;;;;;;;4.40;4.00;;;-0.60;99.90;;;;;;467583;253;28053;-68
2021/04/15 00:30:56;;;;;;;8.40;3.95;;;-0.60;99.90;;;;;;467522;253;28158;-68
2021/04/15 00:32:57;;;;;;;4.35;3.95;;;-0.50;99.90;;;;;;467386;253;27606;-68
2021/04/15 00:34:58;;;;;;;3.87;3.58;;;-0.50;99.90;;;;;;467644;253;27687;-68
2021/04/15 00:36:59;;;;;;;5.55;3.78;;;-0.40;99.90;;;;;;466820;251;27428;-68
2021/04/15 00:39:01;;;;;;;4.28;3.87;;;-0.40;99.90;;;;;;461712;256;27475;-69
2021/04/15 00:41:02;;;;;;;4.28;3.95;;;-0.40;99.90;;;;;;460835;257;27474;-69
2021/04/15 00:43:03;;;;;;;8.10;5.10;;;-0.30;99.90;;;;;;460888;257;27572;-68
2021/04/15 00:45:05;;;;;;;5.32;4.53;;;-0.40;99.90;;;;;;460965;257;27508;-69
2021/04/15 00:47:06;;;;;;;6.90;4.50;;;-0.40;99.90;;;;;;460893;258;27914;-68
2021/04/15 00:49:07;;;;;;;5.72;4.10;;;-0.30;99.90;;;;;;460987;257;29132;-69
2021/04/15 00:51:08;;;;;;;5.65;4.45;;;-0.30;99.90;;;;;;460946;257;27516;-68
2021/04/15 00:53:09;;;;;;;4.70;4.28;;;-0.30;99.90;;;;;;460962;258;27576;-68
2021/04/15 00:55:11;;;;;;;3.97;3.67;;;-0.30;99.90;;;;;;460826;256;27464;-69
2021/04/15 00:57:12;;;;;;;4.97;4.20;;;-0.30;99.90;;;;;;460882;257;27556;-68
2021/04/15 00:59:13;;;;;;;4.95;3.85;;;-0.30;99.90;;;;;;460863;257;27576;-69
2021/04/15 01:01:14;;;;;;;4.30;3.90;;;-0.40;99.90;;;;;;460808;258;27500;-68
2021/04/15 01:03:16;;;;;;;4.10;3.70;;;-0.30;99.90;;;;;;460856;258;27561;-68
2021/04/15 01:05:17;;;;;;;5.18;4.70;;;-0.30;99.90;;;;;;460875;258;27698;-69
2021/04/15 01:07:18;;;;;;;4.60;3.65;;;-0.30;99.90;;;;;;460918;257;28495;-69
2021/04/15 01:09:19;;;;;;;4.05;3.62;;;-0.50;99.90;;;;;;460843;257;28043;-69
2021/04/15 01:11:21;;;;;;;5.07;4.00;;;-0.50;99.90;;;;;;460873;257;27489;-69
2021/04/15 01:13:22;;;;;;;7.32;3.85;;;-0.50;99.90;;;;;;460882;257;27476;-69
2021/04/15 01:15:23;;;;;;;5.37;4.10;;;-0.60;99.90;;;;;;460867;257;27461;-68
2021/04/15 01:17:25;;;;;;;4.53;4.12;;;-0.60;99.90;;;;;;460882;257;27496;-70
2021/04/15 01:19:26;;;;;;;5.03;4.53;;;-0.70;99.90;;;;;;460871;257;27580;-69
2021/04/15 01:21:27;;;;;;;4.18;3.87;;;-0.70;99.90;;;;;;460834;257;27472;-69
2021/04/15 01:23:29;;;;;;;6.03;4.28;;;-0.70;99.90;;;;;;460891;258;27965;-69
2021/04/15 01:25:30;;;;;;;4.65;4.05;;;-0.70;99.90;;;;;;460887;257;29080;-69
2021/04/15 01:27:31;;;;;;;6.82;4.35;;;-0.60;99.90;;;;;;460901;257;27490;-69
2021/04/15 01:29:32;;;;;;;5.03;4.55;;;-0.60;99.90;;;;;;460930;257;27579;-69
2021/04/15 01:31:33;;;;;;;4.50;4.15;;;-0.60;99.90;;;;;;460839;257;27599;-69
2021/04/15 01:33:35;;;;;;;4.78;4.30;;;-0.70;99.90;;;;;;460950;258;27489;-69
2021/04/15 01:35:36;;;;;;;5.15;4.65;;;-0.80;99.90;;;;;;460996;257;27456;-69
2021/04/15 01:37:37;;;;;;;4.35;3.95;;;-0.90;99.90;;;;;;460899;257;27496;-69
2021/04/15 01:39:38;;;;;;;4.80;4.40;;;-0.90;99.90;;;;;;460050;257;27544;-70
2021/04/15 01:41:40;;;;;;;5.20;4.03;;;-0.90;99.90;;;;;;454700;256;27520;-69
2021/04/15 01:43:41;;;;;;;7.32;5.28;;;-0.90;99.90;;;;;;454674;261;27982;-70
2021/04/15 01:45:42;;;;;;;5.30;4.80;;;-0.90;99.90;;;;;;454890;261;27942;-69
2021/04/15 01:47:43;;;;;;;5.32;4.62;;;-0.80;99.90;;;;;;454813;261;27509;-69
2021/04/15 01:49:45;;;;;;;5.35;4.87;;;-0.90;99.90;;;;;;454900;260;27494;-68
2021/04/15 01:51:46;;;;;;;5.35;4.85;;;-0.80;99.90;;;;;;454902;261;27464;-69
2021/04/15 01:53:47;;;;;;;4.40;4.00;;;-0.80;99.90;;;;;;454830;261;27486;-70
2021/04/15 01:55:48;;;;;;;5.40;4.90;;;-0.80;99.90;;;;;;454842;261;27464;-68
2021/04/15 01:57:50;;;;;;;4.25;3.85;;;-0.80;99.90;;;;;;454746;261;27526;-70
2021/04/15 01:59:51;;;;;;;5.25;4.60;;;-0.80;99.90;;;;;;454701;257;27936;-69
2021/04/15 02:01:52;;;;;;;6.90;5.60;;;-0.80;99.90;;;;;;454756;257;28049;-69
2021/04/15 02:03:53;;;;;;;4.20;3.90;;;-0.70;99.90;;;;;;454726;261;28280;-69
2021/04/15 02:05:55;;;;;;;4.82;4.43;;;-0.70;99.90;;;;;;454755;261;27925;-69
2021/04/15 02:07:56;;;;;;;6.55;4.80;;;-0.70;99.90;;;;;;454767;261;27503;-70
2021/04/15 02:09:57;;;;;;;5.22;4.35;;;-0.70;99.90;;;;;;454776;257;27567;-69
2021/04/15 02:11:58;;;;;;;5.32;4.62;;;-0.70;99.90;;;;;;454762;261;27491;-69
2021/04/15 02:14:00;;;;;;;5.05;4.55;;;-0.80;99.90;;;;;;454760;261;27476;-69
2021/04/15 02:16:01;;;;;;;6.20;5.60;;;-0.80;99.90;;;;;;454800;261;27562;-69
2021/04/15 02:18:02;;;;;;;5.53;4.47;;;-0.80;99.90;;;;;;454830;261;27496;-70
2021/04/15 02:20:03;;;;;;;5.68;5.18;;;-0.80;99.90;;;;;;454795;261;27494;-69
2021/04/15 02:22:05;;;;;;;5.43;4.68;;;-0.80;99.90;;;;;;454768;261;27971;-69
2021/04/15 02:24:06;;;;;;;11.60;6.95;;;-0.80;99.90;;;;;;454820;261;27955;-69
2021/04/15 02:26:07;;;;;;;7.53;6.03;;;-0.90;99.90;;;;;;454813;261;28053;-69
2021/04/15 02:28:08;;;;;;;8.60;5.75;;;-0.90;99.90;;;;;;454816;257;27490;-69
2021/04/15 02:30:10;;;;;;;5.97;4.85;;;-0.90;99.90;;;;;;454788;257;27483;-69
2021/04/15 02:32:11;;;;;;;5.85;5.22;;;-0.90;99.90;;;;;;454787;261;27575;-69
2021/04/15 02:34:12;;;;;;;7.47;5.55;;;-0.90;99.90;;;;;;454825;261;27496;-69
2021/04/15 02:36:13;;;;;;;6.32;5.55;;;-0.90;99.90;;;;;;454838;261;27496;-70
2021/04/15 02:38:15;;;;;;;6.18;5.40;;;-0.90;99.90;;;;;;454839;261;27475;-69
2021/04/15 02:40:16;;;;;;;7.37;5.45;;;-0.90;99.90;;;;;;454610;261;27587;-69
2021/04/15 02:42:17;;;;;;;9.52;7.18;;;-0.90;99.90;;;;;;454735;261;28050;-69
2021/04/15 02:44:21;;;;;;;19.92;10.20;;;-0.90;99.90;;;;;;454704;261;27910;-69
2021/04/15 02:46:20;;;;;;;16.90;9.10;;;-1.00;99.90;;;;;;454690;261;27491;-69
2021/04/15 02:48:21;;;;;;;18.80;8.63;;;-1.00;99.90;;;;;;454770;261;27602;-69
2021/04/15 02:50:22;;;;;;;17.27;8.10;;;-1.00;99.90;;;;;;454798;261;27491;-69
2021/04/15 02:52:23;;;;;;;14.00;8.75;;;-1.10;99.90;;;;;;454765;261;27650;-69
2021/04/15 02:54:25;;;;;;;15.98;8.63;;;-1.10;99.90;;;;;;454822;261;27530;-69
2021/04/15 02:56:26;;;;;;;12.05;7.12;;;-1.20;99.90;;;;;;454842;261;27499;-69
2021/04/15 02:58:27;;;;;;;10.38;5.85;;;-1.20;99.90;;;;;;454789;261;28834;-68
2021/04/15 03:00:28;;;;;;;9.90;6.30;;;-1.20;99.90;;;;;;454754;261;28018;-68
2021/04/15 03:02:30;;;;;;;7.90;6.03;;;-1.20;99.90;;;;;;454783;261;27514;-70
2021/04/15 03:04:31;;;;;;;7.97;5.55;;;-1.20;99.90;;;;;;454811;261;27445;-72
2021/04/15 03:06:32;;;;;;;6.72;5.30;;;-1.30;99.90;;;;;;454818;261;27555;-69
2021/04/15 03:08:33;;;;;;;8.63;5.43;;;-1.20;99.90;;;;;;454836;261;27556;-69
2021/04/15 03:10:35;;;;;;;5.95;5.05;;;-1.20;99.90;;;;;;454894;261;27488;-69
2021/04/15 03:12:36;;;;;;;7.03;4.90;;;-1.20;99.90;;;;;;454784;261;27500;-69
2021/04/15 03:14:37;;;;;;;7.65;5.22;;;-1.20;99.90;;;;;;454795;261;27464;-68
2021/04/15 03:16:38;;;;;;;5.30;4.80;;;-1.30;99.90;;;;;;454840;261;28055;-70
2021/04/15 03:18:40;;;;;;;5.47;4.97;;;-1.30;99.90;;;;;;454738;261;28142;-70
2021/04/15 03:20:41;;;;;;;5.15;4.30;;;-1.30;99.90;;;;;;454788;261;27966;-69
2021/04/15 03:22:42;;;;;;;5.93;5.43;;;-1.30;99.90;;;;;;454713;261;27504;-70
2021/04/15 03:24:44;;;;;;;6.30;4.68;;;-1.30;99.90;;;;;;454795;261;27518;-69
2021/04/15 03:26:45;;;;;;;5.30;4.50;;;-1.30;99.90;;;;;;454785;261;27592;-70
2021/04/15 03:28:46;;;;;;;4.60;4.20;;;-1.30;99.90;;;;;;454765;261;27598;-70
2021/04/15 03:30:47;;;;;;;4.70;3.90;;;-1.20;99.90;;;;;;454769;257;28702;-69
2021/04/15 03:32:49;;;;;;;5.70;5.12;;;-1.30;99.90;;;;;;454778;261;27509;-69
2021/04/15 03:34:50;;;;;;;5.43;4.93;;;-1.30;99.90;;;;;;454760;261;27507;-69
2021/04/15 03:36:51;;;;;;;6.05;5.40;;;-1.40;99.90;;;;;;454836;261;27970;-70
2021/04/15 03:38:52;;;;;;;6.15;5.28;;;-1.40;99.90;;;;;;454784;261;27975;-70
2021/04/15 03:40:54;;;;;;;8.20;5.97;;;-1.40;99.90;;;;;;454797;261;29233;-70
2021/04/15 03:42:55;;;;;;;7.10;6.40;;;-1.40;99.90;;;;;;454794;261;27579;-69
2021/04/15 03:44:56;;;;;;;5.32;4.37;;;-1.30;99.90;;;;;;454783;261;27511;-69
2021/04/15 03:46:58;;;;;;;5.82;5.22;;;-1.30;99.90;;;;;;454816;261;27503;-70
2021/04/15 03:48:59;;;;;;;6.55;5.20;;;-1.30;99.90;;;;;;454640;261;27491;-69
2021/04/15 03:51:00;;;;;;;8.40;5.43;;;-1.30;99.90;;;;;;454738;261;27490;-70
2021/04/15 03:53:01;;;;;;;6.90;5.37;;;-1.40;99.90;;;;;;454780;261;27445;-69
2021/04/15 03:55:02;;;;;;;6.78;6.07;;;-1.40;99.90;;;;;;454845;261;27579;-69
2021/04/15 03:57:04;;;;;;;5.43;4.90;;;-1.40;99.90;;;;;;454894;261;27959;-71
2021/04/15 03:59:05;;;;;;;6.20;5.60;;;-1.40;99.90;;;;;;454846;261;28088;-69
2021/04/15 04:01:06;;;;;;;6.80;5.70;;;-1.40;99.90;;;;;;454773;261;28011;-69
2021/04/15 04:03:07;;;;;;;8.35;5.93;;;-1.50;99.90;;;;;;454795;261;27483;-69
2021/04/15 04:05:09;;;;;;;7.07;6.00;;;-1.50;99.90;;;;;;454779;261;27497;-70
2021/04/15 04:07:10;;;;;;;5.93;5.05;;;-1.50;99.90;;;;;;454783;261;27500;-69
2021/04/15 04:09:11;;;;;;;5.97;5.37;;;-1.50;99.90;;;;;;454795;261;27500;-69
2021/04/15 04:11:12;;;;;;;5.57;4.70;;;-1.40;99.90;;;;;;454806;261;27576;-70
2021/04/15 04:13:15;;;;;;;6.45;5.40;;;-1.40;99.90;;;;;;454776;261;27525;-68
2021/04/15 04:15:15;;;;;;;5.85;5.25;;;-1.50;99.90;;;;;;454741;261;27488;-69
2021/04/15 04:17:16;;;;;;;6.45;5.35;;;-1.40;99.90;;;;;;454893;261;28053;-69
2021/04/15 04:19:17;;;;;;;6.15;5.32;;;-1.50;99.90;;;;;;454931;261;29031;-69
2021/04/15 04:21:19;;;;;;;5.45;4.95;;;-1.50;99.90;;;;;;454485;257;29098;-70
2021/04/15 04:23:20;;;;;;;7.03;5.70;;;-1.50;99.90;;;;;;454606;261;27528;-69
2021/04/15 04:25:21;;;;;;;6.85;5.28;;;-1.60;99.90;;;;;;454678;261;27482;-70
2021/04/15 04:27:22;;;;;;;6.40;5.80;;;-1.50;99.90;;;;;;454867;261;27543;-69
2021/04/15 04:29:24;;;;;;;7.62;6.10;;;-1.50;99.90;;;;;;454789;261;27535;-69
2021/04/15 04:31:25;;;;;;;7.12;5.90;;;-1.40;99.90;;;;;;454823;261;27614;-70
2021/04/15 04:33:26;;;;;;;5.57;5.00;;;-1.50;99.90;;;;;;454752;261;27484;-68
2021/04/15 04:35:27;;;;;;;9.02;5.90;;;-1.50;99.90;;;;;;454792;257;27523;-69
2021/04/15 04:37:29;;;;;;;8.32;5.55;;;-1.50;99.90;;;;;;454789;261;28145;-70
2021/04/15 04:39:30;;;;;;;8.55;6.55;;;-1.50;99.90;;;;;;454782;261;28069;-69
2021/04/15 04:41:31;;;;;;;11.93;6.75;;;-1.50;99.90;;;;;;454815;261;27522;-69
2021/04/15 04:43:32;;;;;;;10.75;7.35;;;-1.50;99.90;;;;;;454789;261;27528;-69
2021/04/15 04:45:34;;;;;;;13.93;7.35;;;-1.60;99.90;;;;;;454798;261;27482;-69
2021/04/15 04:47:35;;;;;;;10.18;6.70;;;-1.60;99.90;;;;;;454755;258;27506;-69
2021/04/15 04:49:36;;;;;;;10.30;6.93;;;-1.60;99.90;;;;;;454736;261;27563;-69
2021/04/15 04:51:37;;;;;;;14.05;6.90;;;-1.50;99.90;;;;;;454754;261;27905;-69
2021/04/15 04:53:39;;;;;;;11.35;7.32;;;-1.60;99.90;;;;;;454769;261;28838;-69
2021/04/15 04:55:40;;;;;;;10.80;7.05;;;-1.60;99.90;;;;;;454782;261;28089;-69
2021/04/15 04:57:41;;;;;;;14.50;7.80;;;-1.70;99.90;;;;;;454791;261;27599;-69
2021/04/15 04:59:43;;;;;;;10.25;7.03;;;-1.80;99.90;;;;;;454751;261;27500;-69
2021/04/15 05:01:44;;;;;;;10.70;6.70;;;-1.70;99.90;;;;;;454762;261;27492;-69
2021/04/15 05:03:45;;;;;;;12.13;7.00;;;-1.70;99.90;;;;;;455042;261;27468;-71
2021/04/15 05:05:46;;;;;;;10.10;7.55;;;-1.70;99.90;;;;;;455008;261;27566;-70
2021/04/15 05:07:47;;;;;;;10.25;6.87;;;-1.70;99.90;;;;;;454819;261;27505;-69
2021/04/15 05:09:49;;;;;;;11.40;7.55;;;-1.60;99.90;;;;;;454792;261;27990;-70
2021/04/15 05:11:50;;;;;;;13.75;7.55;;;-1.60;99.90;;;;;;454770;261;27953;-69
2021/04/15 05:13:51;;;;;;;8.20;6.32;;;-1.60;99.90;;;;;;454857;261;27517;-71
2021/04/15 05:15:53;;;;;;;8.40;6.00;;;-1.60;99.90;;;;;;454867;261;27563;-69
2021/04/15 05:17:54;;;;;;;8.32;5.32;;;-1.70;99.90;;;;;;454825;261;27468;-69
2021/04/15 05:19:55;;;;;;;7.90;5.85;;;-1.70;99.90;;;;;;454730;261;27503;-69
2021/04/15 05:21:56;;;;;;;10.15;6.10;;;-1.70;99.90;;;;;;454804;261;27523;-69
2021/04/15 05:23:58;;;;;;;6.40;5.80;;;-1.80;99.90;;;;;;454773;261;27507;-70
2021/04/15 05:25:59;;;;;;;11.12;6.87;;;-1.80;99.90;;;;;;454723;261;28079;-69
2021/04/15 05:28:00;;;;;;;6.40;5.62;;;-1.70;99.90;;;;;;454780;261;28051;-69
2021/04/15 05:30:01;;;;;;;10.13;5.90;;;-1.70;99.90;;;;;;454830;257;27961;-69
2021/04/15 05:32:03;;;;;;;8.45;6.62;;;-1.60;99.90;;;;;;454796;261;27494;-69
2021/04/15 05:34:04;;;;;;;8.88;6.82;;;-1.60;99.90;;;;;;454808;261;27484;-69
2021/04/15 05:36:05;;;;;;;8.52;7.03;;;-1.50;99.90;;;;;;454768;261;27497;-69
2021/04/15 05:38:06;;;;;;;10.35;7.70;;;-1.50;99.90;;;;;;454820;261;27572;-69
2021/04/15 05:40:08;;;;;;;7.40;6.60;;;-1.40;99.90;;;;;;454814;261;27514;-70
2021/04/15 05:42:09;;;;;;;10.13;7.85;;;-1.30;99.90;;;;;;454826;261;27464;-69
2021/04/15 05:44:10;;;;;;;10.88;7.65;;;-1.30;99.90;;;;;;454708;261;27607;-72
2021/04/15 05:46:11;;;;;;;8.68;6.78;;;-1.10;99.90;;;;;;454802;261;29831;-69
2021/04/15 05:48:13;;;;;;;12.82;8.25;;;-1.10;99.90;;;;;;454840;261;27565;-63
2021/04/15 05:50:15;;;;;;;8.23;7.18;;;-1.00;99.90;;;;;;454954;261;27609;-65
2021/04/15 05:52:15;;;;;;;18.00;11.80;;;-0.90;99.90;;;;;;454875;261;27596;-67
2021/04/15 05:54:16;;;;;;;21.30;14.30;;;-0.70;99.90;;;;;;454881;261;27482;-63
2021/04/15 05:56:18;;;;;;;22.65;16.20;;;-0.30;99.90;;;;;;454764;261;27688;-66
2021/04/15 05:58:19;;;;;;;26.58;17.77;;;-0.10;99.90;;;;;;454714;257;27471;-63
2021/04/15 06:00:20;;;;;;;23.73;14.73;;;0.10;99.90;;;;;;454432;261;28070;-64
2021/04/15 06:02:21;;;;;;;22.30;16.05;;;0.10;99.90;;;;;;454679;261;29024;-63
2021/04/15 06:04:23;;;;;;;22.35;15.85;;;0.30;99.90;;;;;;454771;261;27472;-64
2021/04/15 06:06:24;;;;;;;24.52;16.35;;;0.30;99.90;;;;;;454865;261;27503;-64
2021/04/15 06:08:25;;;;;;;22.77;16.35;;;0.40;99.90;;;;;;454918;261;27500;-63
2021/04/15 06:10:26;;;;;;;19.95;16.12;;;0.40;99.90;;;;;;454883;257;27678;-65
2021/04/15 06:12:28;;;;;;;21.23;15.30;;;0.50;99.90;;;;;;454859;257;27960;-65
2021/04/15 06:14:29;;;;;;;24.25;16.58;;;0.50;99.90;;;;;;454740;257;28062;-63
2021/04/15 06:16:30;;;;;;;20.33;16.10;;;0.60;99.90;;;;;;454694;257;28064;-63
2021/04/15 06:18:32;;;;;;;23.35;14.80;;;0.70;99.90;;;;;;454762;261;27476;-63
2021/04/15 06:20:33;;;;;;;21.77;14.43;;;0.70;99.90;;;;;;454790;261;27494;-66
2021/04/15 06:22:34;;;;;;;20.83;15.80;;;0.70;99.90;;;;;;454803;261;27496;-65
2021/04/15 06:24:35;;;;;;;21.00;15.10;;;0.70;99.90;;;;;;454752;257;27503;-64
2021/04/15 06:26:36;;;;;;;23.75;15.07;;;0.80;99.90;;;;;;454727;261;27502;-63
2021/04/15 06:28:38;;;;;;;20.45;14.02;;;0.80;99.90;;;;;;454776;261;27591;-63
2021/04/15 06:30:39;;;;;;;19.70;14.60;;;0.90;99.90;;;;;;454738;261;27967;-66
2021/04/15 06:32:40;;;;;;;19.60;14.30;;;1.00;99.90;;;;;;454764;261;27978;-64
2021/04/15 06:34:41;;;;;;;20.83;13.50;;;1.00;99.90;;;;;;454770;261;27579;-63
2021/04/15 06:36:43;;;;;;;17.45;13.27;;;1.00;99.90;;;;;;454719;261;27576;-63
2021/04/15 06:38:44;;;;;;;15.98;12.40;;;1.10;99.90;;;;;;454768;261;27472;-63
2021/04/15 06:40:45;;;;;;;17.05;13.60;;;1.20;99.90;;;;;;454766;261;27514;-66
2021/04/15 06:42:47;;;;;;;19.95;13.95;;;1.30;99.90;;;;;;454707;257;27500;-63
2021/04/15 06:44:48;;;;;;;17.75;13.50;;;1.20;99.90;;;;;;454775;261;27621;-63
2021/04/15 06:46:49;;;;;;;18.05;13.77;;;1.30;99.90;;;;;;468470;244;27952;-65
2021/04/15 06:48:50;;;;;;;18.00;13.20;;;1.30;99.90;;;;;;487247;243;27657;-65
2021/04/15 06:50:52;;;;;;;17.20;13.40;;;1.30;99.90;;;;;;487235;243;27430;-65
2021/04/15 06:52:53;;;;;;;15.20;12.37;;;1.40;99.90;;;;;;487345;243;27427;-63
2021/04/15 06:54:54;;;;;;;16.92;12.50;;;1.40;99.90;;;;;;487280;243;27623;-64
2021/04/15 06:56:55;;;;;;;21.30;13.62;;;1.50;99.90;;;;;;487508;240;27458;-63
2021/04/15 06:58:57;;;;;;;16.33;12.35;;;1.50;99.90;;;;;;487422;243;27564;-65
2021/04/15 07:00:58;;;;;;;14.75;12.75;;;1.60;99.90;;;;;;482867;243;28353;-65
2021/04/15 07:02:59;;;;;;;17.25;12.60;;;1.70;99.90;;;;;;478075;248;28018;-64
2021/04/15 07:05:00;;;;;;;13.57;10.88;;;1.80;99.90;;;;;;476189;249;27494;-65
2021/04/15 07:07:02;;;;;;;16.90;12.07;;;1.80;99.90;;;;;;478097;248;27623;-64
2021/04/15 07:09:03;;;;;;;14.95;12.30;;;1.90;99.90;;;;;;476240;249;27539;-64
2021/04/15 07:11:04;;;;;;;15.65;12.43;;;1.90;99.90;;;;;;477910;244;27445;-64
2021/04/15 07:13:05;;;;;;;16.95;12.48;;;1.80;99.90;;;;;;487393;244;27514;-64
2021/04/15 07:15:07;;;;;;;15.52;11.48;;;2.00;99.90;;;;;;479786;248;27510;-66
2021/04/15 07:17:08;;;;;;;15.88;11.82;;;2.00;99.90;;;;;;487729;242;27914;-64
2021/04/15 07:19:09;;;;;;;13.80;11.30;;;2.10;99.90;;;;;;475949;248;28048;-64
2021/04/15 07:21:10;;;;;;;14.82;11.20;;;2.10;99.90;;;;;;469697;253;27479;-64
2021/04/15 07:23:12;;;;;;;13.68;10.85;;;2.10;99.90;;;;;;469703;253;27519;-64
2021/04/15 07:25:13;;;;;;;15.27;11.55;;;2.20;99.90;;;;;;469596;253;27574;-67
2021/04/15 07:27:14;;;;;;;14.87;11.65;;;2.20;99.90;;;;;;469570;253;27539;-64
2021/04/15 07:29:15;;;;;;;16.23;12.25;;;2.30;99.90;;;;;;469552;253;27614;-64
2021/04/15 07:31:17;;;;;;;14.57;10.75;;;2.30;99.90;;;;;;469541;253;28046;-65
2021/04/15 07:33:18;;;;;;;13.73;11.52;;;2.30;99.90;;;;;;469554;253;27922;-64
2021/04/15 07:35:19;;;;;;;14.70;9.82;;;2.20;99.90;;;;;;469582;253;28017;-65
2021/04/15 07:37:20;;;;;;;16.77;12.27;;;2.40;99.90;;;;;;469496;253;27498;-64
2021/04/15 07:39:22;;;;;;;13.70;10.82;;;2.50;99.90;;;;;;469569;253;27595;-64
2021/04/15 07:41:23;;;;;;;12.73;10.23;;;2.60;99.90;;;;;;469546;253;27514;-66
2021/04/15 07:43:24;;;;;;;12.98;11.02;;;2.70;99.90;;;;;;469567;253;27571;-63
2021/04/15 07:45:26;;;;;;;12.32;9.73;;;2.70;99.90;;;;;;469519;253;27613;-65
2021/04/15 07:47:27;;;;;;;16.12;10.43;;;2.70;99.90;;;;;;469522;253;27527;-64
2021/04/15 07:49:28;;;;;;;13.38;10.63;;;2.70;99.90;;;;;;469518;253;28082;-65
2021/04/15 07:51:29;;;;;;;10.98;9.75;;;2.80;99.90;;;;;;469582;253;27965;-64
2021/04/15 07:53:30;;;;;;;14.20;10.95;;;2.80;99.90;;;;;;469557;253;27490;-64
2021/04/15 07:55:32;;;;;;;16.98;9.48;;;2.90;99.90;;;;;;469551;253;27590;-64
2021/04/15 07:57:33;;;;;;;11.50;9.77;;;3.10;99.90;;;;;;469523;253;27482;-66
2021/04/15 07:59:34;;;;;;;13.18;9.85;;;3.10;99.90;;;;;;469590;253;27599;-64
2021/04/15 08:01:36;;;;;;;12.07;9.85;;;3.20;99.90;;;;;;477687;248;27526;-64
2021/04/15 08:03:37;;;;;;;12.45;9.25;;;3.30;99.90;;;;;;477993;248;27543;-64
2021/04/15 08:05:38;;;;;;;10.77;8.23;;;3.30;99.90;;;;;;478077;248;27507;-63
2021/04/15 08:07:39;;;;;;;12.75;8.95;;;3.30;99.90;;;;;;477960;248;28004;-66
2021/04/15 08:09:41;;;;;;;11.73;9.80;;;3.30;99.90;;;;;;478059;248;28590;-63
2021/04/15 08:11:42;;;;;;;14.30;9.68;;;3.40;99.90;;;;;;478014;248;27543;-64
2021/04/15 08:13:45;;;;;;;21.35;9.45;;;3.50;99.90;;;;;;477993;248;27912;-66
2021/04/15 08:15:44;;;;;;;19.52;9.63;;;3.50;99.90;;;;;;477996;248;27972;-65
2021/04/15 08:17:46;;;;;;;10.27;9.18;;;3.70;99.90;;;;;;478041;248;28089;-65
2021/04/15 08:19:47;;;;;;;10.25;8.60;;;3.90;99.90;;;;;;478028;248;28031;-64
2021/04/15 08:21:48;;;;;;;12.63;9.15;;;4.10;99.90;;;;;;478037;248;27599;-64
2021/04/15 08:23:49;;;;;;;9.35;7.50;;;4.20;99.90;;;;;;477982;248;27541;-66
2021/04/15 08:28:15;;;;;;;10.48;8.45;;;4.40;99.90;;;;;;443943;261;27564;-64
2021/04/15 08:30:16;;;;;;;9.70;8.18;;;4.40;99.90;;;;;;443690;266;27628;-64
2021/04/15 08:32:17;;;;;;;10.15;7.72;;;4.40;99.90;;;;;;451461;263;27887;-64
2021/04/15 08:34:18;;;;;;;11.15;8.15;;;4.60;99.90;;;;;;458662;257;27470;-64
2021/04/15 08:36:20;;;;;;;13.50;8.32;;;4.70;99.90;;;;;;451106;262;27613;-67
2021/04/15 08:38:21;;;;;;;10.00;8.35;;;4.90;99.90;;;;;;451078;261;27557;-64
2021/04/15 08:40:22;;;;;;;9.65;8.20;;;4.90;99.90;;;;;;449812;261;28469;-64
2021/04/15 08:42:23;;;;;;;8.13;7.18;;;5.00;99.90;;;;;;444685;267;28192;-66
2021/04/15 08:44:25;;;;;;;8.82;6.78;;;5.20;99.90;;;;;;449860;263;27484;-64
2021/04/15 08:46:26;;;;;;;9.40;7.30;;;5.00;99.90;;;;;;449818;264;27531;-64
2021/04/15 08:48:27;;;;;;;8.67;6.77;;;5.00;99.90;;;;;;449839;264;27496;-65
2021/04/15 08:50:28;;;;;;;9.05;7.03;;;4.70;99.90;;;;;;449781;264;28950;-66
2021/04/15 08:52:30;;;;;;;8.88;6.68;;;4.80;99.90;;;;;;449802;261;27623;-65
2021/04/15 08:54:31;;;;;;;7.67;6.83;;;4.80;99.90;;;;;;449846;264;27987;-64
2021/04/15 08:56:32;;;;;;;7.43;6.62;;;5.00;99.90;;;;;;458029;248;29175;-64
2021/04/15 08:58:34;;;;;;;6.45;5.72;;;4.80;99.90;;;;;;469967;251;28653;-65
2021/04/15 09:00:35;;;;;;;7.90;7.10;;;4.90;99.90;;;;;;470114;251;27436;-66
2021/04/15 09:02:36;;;;;;;8.40;6.70;;;5.00;99.90;;;;;;470025;251;27434;-66
2021/04/15 09:04:37;;;;;;;9.98;7.68;;;4.90;99.90;;;;;;470060;251;27446;-65
2021/04/15 09:06:39;;;;;;;9.10;7.45;;;4.80;99.90;;;;;;469028;248;27471;-64
2021/04/15 09:08:40;;;;;;;9.23;7.70;;;5.00;99.90;;;;;;467425;250;27524;-64
2021/04/15 09:10:41;;;;;;;7.95;6.95;;;5.20;99.90;;;;;;469101;253;27551;-65
2021/04/15 09:12:42;;;;;;;10.38;7.45;;;5.30;99.90;;;;;;469049;253;28047;-64
2021/04/15 09:14:44;;;;;;;7.28;6.50;;;5.40;99.90;;;;;;468973;253;28643;-64
2021/04/15 09:16:45;;;;;;;7.07;6.40;;;5.60;99.90;;;;;;469414;250;27508;-64
2021/04/15 09:18:46;;;;;;;6.57;5.97;;;5.60;99.90;;;;;;471694;251;28119;-65
2021/04/15 09:20:47;;;;;;;6.60;5.90;;;5.60;99.90;;;;;;471258;248;27393;-67
2021/04/15 09:22:49;;;;;;;7.50;5.77;;;5.50;99.90;;;;;;471805;248;27390;-64
2021/04/15 09:24:50;;;;;;;6.90;6.00;;;5.40;99.90;;;;;;471687;251;27978;-65
2021/04/15 09:26:51;;;;;;;6.43;5.83;;;5.30;99.90;;;;;;471725;248;27394;-64
2021/04/15 09:28:52;;;;;;;6.75;6.05;;;5.20;99.90;;;;;;471744;251;28583;-65
2021/04/15 09:30:54;;;;;;;6.30;5.70;;;5.20;99.90;;;;;;470857;251;28370;-66
2021/04/15 09:32:55;;;;;;;7.33;6.63;;;5.20;99.90;;;;;;470155;251;27415;-63
2021/04/15 09:34:56;;;;;;;6.97;5.20;;;5.60;99.90;;;;;;470107;252;28655;-66
2021/04/15 09:36:57;;;;;;;6.30;5.70;;;5.80;99.90;;;;;;473653;248;27361;-63
2021/04/15 09:38:59;;;;;;;6.63;5.67;;;5.80;99.90;;;;;;478397;248;27523;-64
2021/04/15 09:41:01;;;;;;;5.63;4.60;;;5.90;99.90;;;;;;478371;248;27871;-63
2021/04/15 09:43:02;;;;;;;6.03;5.50;;;6.10;99.90;;;;;;478442;248;28003;-63
2021/04/15 09:45:03;;;;;;;6.93;5.73;;;5.90;99.90;;;;;;478371;248;27562;-65
2021/04/15 09:47:04;;;;;;;5.40;4.90;;;5.70;99.90;;;;;;478440;248;27954;-65
2021/04/15 09:49:05;;;;;;;5.03;4.62;;;5.70;99.90;;;;;;478294;248;28532;-67
2021/04/15 09:51:06;;;;;;;5.60;5.10;;;5.50;99.90;;;;;;478486;248;27442;-66
2021/04/15 09:53:08;;;;;;;6.20;4.50;;;5.80;99.90;;;;;;478476;248;27721;-62
2021/04/15 09:55:09;;;;;;;5.10;4.70;;;5.90;99.90;;;;;;478461;248;27855;-67
2021/04/15 09:57:10;;;;;;;5.63;5.13;;;6.00;99.90;;;;;;478446;248;28058;-63
2021/04/15 09:59:11;;;;;;;6.33;4.77;;;6.60;99.90;;;;;;478391;248;27856;-64
2021/04/15 10:01:13;;;;;;;4.97;4.57;;;6.80;99.90;;;;;;478350;248;28134;-66
2021/04/15 10:03:16;;;;;;;8.07;4.67;;;6.70;99.90;;;;;;477046;248;28150;-64
2021/04/15 10:05:15;;;;;;;4.60;4.20;;;6.50;99.90;;;;;;477228;248;28083;-66
2021/04/15 10:07:16;;;;;;;4.67;4.20;;;6.60;99.90;;;;;;478268;248;28081;-72
2021/04/15 10:09:18;;;;;;;4.67;4.00;;;6.50;99.90;;;;;;478443;248;28530;-66
2021/04/15 10:11:19;;;;;;;5.27;4.77;;;6.40;99.90;;;;;;473993;248;28582;-63
2021/04/15 10:13:20;;;;;;;4.63;4.33;;;6.30;99.90;;;;;;470875;248;29263;-64
2021/04/15 10:15:21;;;;;;;12.47;4.47;;;6.40;99.90;;;;;;470535;252;28284;-66
2021/04/15 10:17:23;;;;;;;5.57;4.93;;;6.20;99.90;;;;;;470502;252;28551;-65
2021/04/15 10:19:29;;;;;;;5.23;4.70;;;6.30;99.90;;;;;;472106;248;27827;-64
2021/04/15 10:21:26;;;;;;;5.70;4.50;;;6.20;99.90;;;;;;478719;244;27999;-65
2021/04/15 10:23:28;;;;;;;9.20;6.90;;;6.10;99.90;;;;;;479311;248;28121;-64
2021/04/15 10:25:28;;;;;;;6.93;5.53;;;6.10;99.90;;;;;;479297;248;27999;-64
2021/04/15 10:27:29;;;;;;;14.97;5.73;;;6.10;99.90;;;;;;479207;248;27950;-67
2021/04/15 10:29:30;;;;;;;8.50;5.43;;;6.20;99.90;;;;;;476991;244;27980;-63
2021/04/15 10:31:31;;;;;;;6.00;4.83;;;6.40;99.90;;;;;;477560;246;27738;-64